Time;durP1;ratioP1;P1;durP2;ratioP2;P2;SDS_P1;SDS_P2;PMS_P1;PMS_P2;Temp;Humidity;BMP_temperature;BMP_pressure;BME280_temperature;BME280_humidity;BME280_pressure;Samples;Min_cycle;Max_cycle;Signal;HPM_P1;HPM_P2
2023/06/04 00:01:16;;;;;;;2.10;0.70;;;;;;;10.05;100.00;100599.40;105178;1261;71334;-66
2023/06/04 00:03:43;;;;;;;3.90;0.60;;;;;;;10.01;100.00;100602.45;105201;1257;60374;-66
2023/06/04 00:06:11;;;;;;;2.10;0.40;;;;;;;9.98;100.00;100605.04;105571;1256;60367;-66
2023/06/04 00:08:38;;;;;;;2.60;1.00;;;;;;;9.96;100.00;100607.52;105062;1257;74544;-66
2023/06/04 00:11:05;;;;;;;2.40;0.50;;;;;;;9.94;100.00;100610.09;105040;1258;67192;-67
2023/06/04 00:13:33;;;;;;;1.10;0.50;;;;;;;9.92;100.00;100609.20;105010;1258;72642;-67
2023/06/04 00:16:00;;;;;;;1.60;0.60;;;;;;;9.88;100.00;100609.12;105429;1257;60575;-67
2023/06/04 00:18:27;;;;;;;1.40;0.50;;;;;;;9.85;100.00;100610.65;104710;1257;60454;-67
2023/06/04 00:20:54;;;;;;;2.60;0.60;;;;;;;9.81;100.00;100608.30;104958;1256;72722;-67
2023/06/04 00:23:22;;;;;;;3.90;1.20;;;;;;;9.78;100.00;100606.08;105000;1260;66969;-66
2023/06/04 00:25:49;;;;;;;2.10;0.50;;;;;;;9.75;100.00;100606.19;104935;1261;72711;-67
2023/06/04 00:28:16;;;;;;;3.30;0.90;;;;;;;9.72;100.00;100616.77;105197;1257;60857;-66
2023/06/04 00:30:43;;;;;;;2.60;0.60;;;;;;;9.68;100.00;100612.48;104984;1260;61350;-66
2023/06/04 00:33:10;;;;;;;2.10;0.60;;;;;;;9.65;100.00;100611.77;105000;1256;73727;-66
2023/06/04 00:35:37;;;;;;;0.90;0.40;;;;;;;9.61;100.00;100613.29;105380;1257;65869;-67
2023/06/04 00:38:04;;;;;;;1.70;0.50;;;;;;;9.58;100.00;100616.95;105145;1256;73257;-67
2023/06/04 00:40:31;;;;;;;1.90;0.30;;;;;;;9.54;100.00;100618.82;105181;1258;60575;-66
2023/06/04 00:42:58;;;;;;;3.00;0.60;;;;;;;9.49;100.00;100616.67;105201;1261;60304;-66
2023/06/04 00:45:26;;;;;;;1.80;0.60;;;;;;;9.43;100.00;100618.81;105365;1257;73842;-67
2023/06/04 00:47:53;;;;;;;2.40;0.60;;;;;;;9.39;100.00;100618.65;105546;1256;65971;-65
2023/06/04 00:50:21;;;;;;;1.90;0.50;;;;;;;9.34;100.00;100623.19;104893;1256;72349;-64
2023/06/04 00:52:49;;;;;;;1.40;0.70;;;;;;;9.31;100.00;100625.11;105056;1261;62544;-68
2023/06/04 00:55:19;;;;;;;1.30;0.70;;;;;;;9.26;100.00;100629.70;105043;1260;419140;-65
2023/06/04 00:57:47;;;;;;;2.10;0.50;;;;;;;9.20;100.00;100631.92;104976;1256;72570;-66
2023/06/04 01:00:14;;;;;;;1.40;0.60;;;;;;;9.17;100.00;100634.88;105055;1261;66119;-67
2023/06/04 01:02:43;;;;;;;1.40;0.40;;;;;;;9.13;100.00;100635.08;104978;1260;72731;-67
2023/06/04 01:05:14;;;;;;;4.90;0.50;;;;;;;9.10;100.00;100636.30;104873;1257;60531;-66
2023/06/04 01:07:47;;;;;;;3.60;0.70;;;;;;;9.07;100.00;100639.11;104946;1257;60411;-66
2023/06/04 01:10:15;;;;;;;4.40;0.50;;;;;;;9.03;100.00;100638.11;105133;1258;74209;-66
2023/06/04 01:12:42;;;;;;;5.10;0.80;;;;;;;8.99;100.00;100653.07;105037;1260;66158;-65
2023/06/04 01:15:10;;;;;;;1.90;0.70;;;;;;;8.97;100.00;100656.60;105084;1257;72701;-65
2023/06/04 01:17:37;;;;;;;2.90;0.80;;;;;;;8.93;100.00;100659.56;104984;1260;60820;-65
2023/06/04 01:20:08;;;;;;;2.60;0.70;;;;;;;8.90;100.00;100662.39;105508;1257;60572;-66
2023/06/04 01:22:59;;;;;;;5.40;1.20;;;;;;;8.86;100.00;100662.80;105095;1262;73979;-67
2023/06/04 01:25:33;;;;;;;;;;;;;;;8.82;100.00;100662.16;104762;1262;67058;-66
2023/06/04 01:28:00;;;;;;;1.70;0.70;;;;;;;8.77;100.00;100666.39;105141;1259;71439;-67
2023/06/04 01:30:42;;;;;;;1.30;0.60;;;;;;;8.72;100.00;100670.52;105327;1262;60459;-67
2023/06/04 01:33:10;;;;;;;1.60;0.80;;;;;;;8.67;100.00;100671.04;105063;1257;60487;-64
2023/06/04 01:35:37;;;;;;;4.10;0.90;;;;;;;8.62;100.00;100672.89;105069;1256;73656;-64
2023/06/04 01:38:05;;;;;;;3.50;0.60;;;;;;;8.60;100.00;100669.73;105256;1260;65742;-65
2023/06/04 01:40:32;;;;;;;2.50;0.90;;;;;;;8.57;100.00;100673.30;105020;1257;71529;-65
2023/06/04 01:43:00;;;;;;;2.90;0.60;;;;;;;8.53;100.00;100679.73;105209;1256;61021;-64
2023/06/04 01:45:27;;;;;;;5.20;0.90;;;;;;;8.51;100.00;100682.05;104704;1257;60522;-65
2023/06/04 01:47:55;;;;;;;3.40;0.90;;;;;;;8.49;100.00;100684.45;104980;1261;73907;-65
2023/06/04 01:50:23;;;;;;;3.00;0.70;;;;;;;8.47;100.00;100684.15;105112;1257;67787;-66
2023/06/04 01:52:50;;;;;;;4.20;0.60;;;;;;;8.47;100.00;100686.42;105211;1257;72657;-65
2023/06/04 01:55:17;;;;;;;2.50;0.80;;;;;;;8.55;100.00;100686.84;104926;1260;60564;-64
2023/06/04 01:57:45;;;;;;;1.80;0.80;;;;;;;8.77;100.00;100683.50;105050;1260;60512;-66
2023/06/04 02:00:13;;;;;;;1.50;0.60;;;;;;;9.09;100.00;100687.52;105013;1262;73590;-66
2023/06/04 02:02:41;;;;;;;2.70;0.80;;;;;;;9.47;100.00;100689.77;105502;1258;65942;-66
2023/06/04 02:05:09;;;;;;;1.80;0.70;;;;;;;9.83;100.00;100687.19;105256;1259;72794;-66
2023/06/04 02:07:38;;;;;;;2.60;0.80;;;;;;;10.20;100.00;100688.95;105227;1257;60450;-65
2023/06/04 02:10:09;;;;;;;1.80;0.70;;;;;;;10.53;100.00;100688.89;105155;1258;59863;-66
2023/06/04 02:12:37;;;;;;;3.60;0.80;;;;;;;10.88;100.00;100688.41;105416;1258;74357;-66
2023/06/04 02:15:05;;;;;;;1.20;0.40;;;;;;;11.19;100.00;100689.36;105035;1258;67040;-66
2023/06/04 02:17:32;;;;;;;2.10;0.90;;;;;;;11.42;100.00;100690.69;104960;1258;72939;-67
2023/06/04 02:20:00;;;;;;;2.80;0.80;;;;;;;11.65;100.00;100689.50;105040;1262;60569;-67
2023/06/04 02:22:27;;;;;;;1.80;0.50;;;;;;;11.99;100.00;100686.05;105165;1260;60421;-66
2023/06/04 02:24:54;;;;;;;1.00;0.40;;;;;;;12.38;100.00;100687.65;105391;1260;73926;-67
2023/06/04 02:27:22;;;;;;;2.70;0.80;;;;;;;12.68;100.00;100689.38;105132;1259;67014;-67
2023/06/04 02:29:49;;;;;;;3.20;0.80;;;;;;;12.93;100.00;100693.92;104917;1257;71448;-65
2023/06/04 02:32:16;;;;;;;3.30;0.70;;;;;;;13.14;100.00;100686.20;105082;1256;60944;-66
2023/06/04 02:34:44;;;;;;;2.10;0.70;;;;;;;13.19;100.00;100692.90;105043;1261;60451;-67
2023/06/04 02:37:11;;;;;;;1.30;0.60;;;;;;;13.29;100.00;100691.77;105491;1258;73920;-69
2023/06/04 02:39:38;;;;;;;2.90;0.70;;;;;;;13.53;100.00;100694.70;104968;1257;67129;-67
2023/06/04 02:42:06;;;;;;;1.70;0.60;;;;;;;13.84;100.00;100697.06;105097;1257;71800;-68
2023/06/04 02:44:32;;;;;;;1.30;0.60;;;;;;;14.11;100.00;100701.87;105225;1262;60590;-68
2023/06/04 02:46:59;;;;;;;2.30;0.60;;;;;;;14.31;100.00;100703.81;104945;1257;60524;-67
2023/06/04 02:49:27;;;;;;;1.60;0.60;;;;;;;14.45;100.00;100705.92;105118;1257;72567;-67
2023/06/04 02:51:54;;;;;;;1.60;0.50;;;;;;;14.63;100.00;100709.23;105129;1259;67099;-67
2023/06/04 02:54:22;;;;;;;2.80;0.50;;;;;;;14.95;100.00;100713.52;104924;1259;70842;-68
2023/06/04 02:56:49;;;;;;;1.30;0.50;;;;;;;15.41;100.00;100714.17;104997;1258;60549;-68
2023/06/04 02:59:16;;;;;;;0.90;0.50;;;;;;;15.87;100.00;100717.94;105191;1262;60341;-65
2023/06/04 03:01:43;;;;;;;2.60;0.50;;;;;;;16.17;100.00;100722.20;105044;1258;72493;-66
2023/06/04 03:04:14;;;;;;;1.50;0.50;;;;;;;16.30;100.00;100724.50;104994;1262;66036;-66
2023/06/04 03:06:46;;;;;;;1.70;0.50;;;;;;;16.57;100.00;100726.06;105036;1257;71509;-65
2023/06/04 03:09:13;;;;;;;2.10;0.30;;;;;;;16.82;98.79;100727.13;105023;1262;60880;-68
2023/06/04 03:11:41;;;;;;;0.90;0.40;;;;;;;16.78;91.93;100724.11;105230;1257;60444;-64
2023/06/04 03:14:09;;;;;;;3.10;0.50;;;;;;;16.61;93.90;100733.70;105233;1258;72760;-68
2023/06/04 03:16:39;;;;;;;4.00;0.50;;;;;;;16.56;94.57;100736.29;105082;1257;67418;-67
2023/06/04 03:19:06;;;;;;;1.60;0.40;;;;;;;16.47;95.25;100738.05;104863;1257;72532;-67
2023/06/04 03:21:33;;;;;;;2.20;0.50;;;;;;;16.40;95.78;100737.17;105371;1257;61284;-67
2023/06/04 03:24:00;;;;;;;1.90;0.40;;;;;;;16.44;97.53;100736.14;104809;1257;60481;-67
2023/06/04 03:26:28;;;;;;;2.20;0.60;;;;;;;16.64;98.71;100736.24;105180;1259;73691;-67
2023/06/04 03:28:55;;;;;;;3.30;0.50;;;;;;;16.94;93.59;100742.92;104658;1257;68148;-65
2023/06/04 03:31:22;;;;;;;2.10;0.50;;;;;;;17.14;90.49;100742.67;104942;1262;73038;-66
2023/06/04 03:33:49;;;;;;;4.60;0.60;;;;;;;17.36;87.51;100748.30;104887;1257;60493;-64
2023/06/04 03:36:16;;;;;;;1.10;0.50;;;;;;;17.46;81.36;100751.16;105058;1259;61121;-66
2023/06/04 03:38:45;;;;;;;2.40;0.50;;;;;;;17.33;80.15;100751.40;104853;1257;72743;-67
2023/06/04 03:41:13;;;;;;;2.00;0.40;;;;;;;17.33;81.01;100757.39;105483;1258;67101;-67
2023/06/04 03:43:41;;;;;;;1.40;0.50;;;;;;;17.34;82.43;100757.55;105187;1260;71884;-68
2023/06/04 03:46:09;;;;;;;1.10;0.50;;;;;;;17.60;83.80;100751.09;104900;1257;60639;-67
2023/06/04 03:48:37;;;;;;;2.40;0.40;;;;;;;17.85;78.22;100752.09;104960;1257;60491;-68
2023/06/04 03:51:04;;;;;;;3.80;0.60;;;;;;;18.08;76.89;100756.10;105040;1260;73871;-66
2023/06/04 03:53:32;;;;;;;0.80;0.50;;;;;;;18.28;73.27;100760.43;104914;1258;67009;-67
2023/06/04 03:56:00;;;;;;;2.00;0.80;;;;;;;18.42;71.11;100758.75;105000;1257;71536;-68
2023/06/04 03:58:29;;;;;;;2.80;0.90;;;;;;;18.65;69.24;100757.96;105338;1258;60329;-66
2023/06/04 04:00:57;;;;;;;3.00;0.60;;;;;;;18.95;68.39;100760.58;104933;1262;60384;-66
2023/06/04 04:03:24;;;;;;;1.10;0.50;;;;;;;19.28;62.13;100758.13;105041;1259;73789;-66
2023/06/04 04:05:52;;;;;;;1.10;0.60;;;;;;;19.30;58.47;100758.54;104988;1258;65802;-68
2023/06/04 04:08:21;;;;;;;1.70;0.60;;;;;;;19.29;59.76;100755.62;104867;1262;72494;-67
2023/06/04 04:10:50;;;;;;;2.40;0.70;;;;;;;19.35;60.25;100753.20;104661;1260;60851;-67
2023/06/04 04:13:17;;;;;;;1.20;0.60;;;;;;;19.50;58.44;100760.48;104959;1257;60453;-69
2023/06/04 04:15:44;;;;;;;1.70;0.70;;;;;;;19.53;56.41;100757.75;105166;1257;74177;-70
2023/06/04 04:18:13;;;;;;;1.90;0.50;;;;;;;19.57;58.27;100759.14;104979;1258;66023;-66
2023/06/04 04:20:40;;;;;;;2.20;0.60;;;;;;;19.82;57.50;100752.29;105152;1259;73248;-67
2023/06/04 04:23:09;;;;;;;1.90;0.50;;;;;;;20.31;57.85;100754.73;105147;1257;60444;-68
2023/06/04 04:25:38;;;;;;;2.00;0.50;;;;;;;20.79;50.72;100751.13;105538;1257;60563;-65
2023/06/04 04:28:08;;;;;;;3.30;0.70;;;;;;;20.79;48.71;100748.39;105611;1259;72202;-66
2023/06/04 04:30:36;;;;;;;1.30;0.70;;;;;;;20.68;47.69;100759.02;105422;1261;65717;-66
2023/06/04 04:33:07;;;;;;;1.80;0.70;;;;;;;20.55;47.69;100765.00;104965;1257;71749;-65
2023/06/04 04:35:39;;;;;;;1.60;0.60;;;;;;;20.62;50.86;100766.31;105018;1257;61861;-67
2023/06/04 04:38:07;;;;;;;2.70;0.80;;;;;;;21.32;50.50;100768.45;105536;1258;60352;-67
2023/06/04 04:40:39;;;;;;;3.70;0.70;;;;;;;22.06;44.43;100763.64;105053;1262;74180;-66
2023/06/04 04:43:07;;;;;;;1.20;0.60;;;;;;;22.42;41.81;100763.75;105330;1259;66098;-68
2023/06/04 04:45:35;;;;;;;1.00;0.50;;;;;;;22.53;40.37;100767.38;105438;1260;71478;-66
2023/06/04 04:48:02;;;;;;;2.20;0.80;;;;;;;22.78;39.53;100771.39;105206;1258;60527;-69
2023/06/04 04:50:31;;;;;;;1.00;0.60;;;;;;;22.68;38.04;100771.77;105466;1262;61102;-67
2023/06/04 04:52:59;;;;;;;4.70;0.90;;;;;;;22.43;38.70;100773.48;105354;1263;73990;-65
2023/06/04 04:55:26;;;;;;;1.20;0.70;;;;;;;22.40;38.79;100774.09;105240;1262;66013;-68
2023/06/04 04:57:54;;;;;;;2.10;0.70;;;;;;;22.38;38.34;100776.45;105259;1263;72724;-69
2023/06/04 05:00:21;;;;;;;1.30;0.70;;;;;;;22.57;38.89;100774.91;105502;1257;60442;-68
2023/06/04 05:02:51;;;;;;;2.10;0.70;;;;;;;22.97;37.14;100768.03;105191;1262;61250;-67
2023/06/04 05:05:18;;;;;;;4.10;0.80;;;;;;;23.28;36.93;100763.92;105527;1257;71816;-67
2023/06/04 05:07:45;;;;;;;1.90;0.90;;;;;;;23.70;36.40;100760.86;105328;1260;66374;-67
2023/06/04 05:10:13;;;;;;;3.80;0.70;;;;;;;23.99;35.63;100766.14;105442;1261;72482;-67
2023/06/04 05:12:51;;;;;;;5.50;0.70;;;;;;;24.09;34.99;100766.08;104984;1257;60467;-67
2023/06/04 05:15:19;;;;;;;1.90;0.90;;;;;;;24.06;33.70;100762.54;105168;1259;60486;-65
2023/06/04 05:17:47;;;;;;;1.50;0.70;;;;;;;23.69;33.64;100766.98;105043;1257;72783;-66
2023/06/04 05:20:15;;;;;;;3.40;0.80;;;;;;;23.38;34.17;100763.99;105327;1260;66329;-67
2023/06/04 05:22:43;;;;;;;4.10;1.00;;;;;;;23.33;34.70;100770.39;104743;1257;73177;-67
2023/06/04 05:25:10;;;;;;;1.70;0.70;;;;;;;23.34;34.09;100770.05;105056;1261;60661;-68
2023/06/04 05:27:40;;;;;;;1.20;0.90;;;;;;;23.28;34.62;100774.77;105133;1260;61240;-69
2023/06/04 05:30:09;;;;;;;1.80;1.00;;;;;;;23.09;34.02;100768.83;105400;1257;75414;-68
2023/06/04 05:32:40;;;;;;;3.50;0.80;;;;;;;22.76;34.65;100764.84;105271;1262;67686;-69
2023/06/04 05:35:08;;;;;;;2.80;0.80;;;;;;;22.75;35.70;100764.20;105351;1261;71429;-70
2023/06/04 05:37:37;;;;;;;5.00;1.20;;;;;;;23.02;35.09;100771.85;105308;1262;61266;-69
2023/06/04 05:40:05;;;;;;;1.70;0.70;;;;;;;23.06;34.09;100766.52;105304;1258;61205;-67
2023/06/04 05:42:34;;;;;;;3.00;0.80;;;;;;;22.82;34.27;100771.02;105101;1260;74916;-70
2023/06/04 05:45:01;;;;;;;3.00;0.70;;;;;;;22.74;35.76;100771.04;104991;1259;65903;-69
2023/06/04 05:47:29;;;;;;;1.20;0.70;;;;;;;23.10;35.81;100763.09;104898;1259;71456;-70
2023/06/04 05:49:57;;;;;;;3.00;0.80;;;;;;;23.72;35.58;100757.40;105392;1262;61221;-69
2023/06/04 05:52:25;;;;;;;2.90;0.80;;;;;;;24.25;33.52;100756.97;105233;1262;61165;-67
2023/06/04 05:54:52;;;;;;;2.20;0.90;;;;;;;24.51;32.69;100756.38;104692;1262;75034;-67
2023/06/04 05:57:20;;;;;;;3.30;1.00;;;;;;;24.64;32.43;100752.34;105031;1258;66903;-68
2023/06/04 05:59:47;;;;;;;4.60;1.00;;;;;;;24.66;31.92;100751.91;104964;1258;72531;-68
2023/06/04 06:02:15;;;;;;;2.90;0.70;;;;;;;24.67;32.21;100755.38;104974;1262;61112;-67
2023/06/04 06:04:42;;;;;;;3.70;0.80;;;;;;;24.54;32.16;100759.09;105088;1258;61258;-71
2023/06/04 06:07:10;;;;;;;1.60;0.70;;;;;;;24.17;32.64;100761.05;104973;1259;75228;-69
2023/06/04 06:09:37;;;;;;;1.20;0.60;;;;;;;23.84;33.34;100751.09;105244;1260;67333;-72
2023/06/04 06:12:05;;;;;;;1.30;0.70;;;;;;;23.57;33.73;100759.98;105448;1258;72839;-70
2023/06/04 06:14:34;;;;;;;2.00;0.90;;;;;;;23.74;35.01;100755.95;105461;1262;61225;-68
2023/06/04 06:17:02;;;;;;;5.00;1.10;;;;;;;24.28;33.88;100755.86;105050;1260;61333;-66
2023/06/04 06:19:32;;;;;;;3.40;1.00;;;;;;;24.75;33.21;100750.59;105046;1256;74700;-67
2023/06/04 06:21:59;;;;;;;1.80;0.80;;;;;;;25.18;32.45;100749.88;105117;1260;66449;-69
2023/06/04 06:24:28;;;;;;;2.40;0.90;;;;;;;25.42;31.80;100754.64;104898;1258;73066;-71
2023/06/04 06:26:55;;;;;;;2.00;0.80;;;;;;;25.42;30.21;100753.48;105533;1261;61332;-71
2023/06/04 06:29:23;;;;;;;1.30;0.70;;;;;;;24.83;29.71;100759.08;104935;1262;61234;-67
2023/06/04 06:31:51;;;;;;;2.70;0.80;;;;;;;24.17;31.44;100751.40;104893;1257;74732;-67
2023/06/04 06:34:18;;;;;;;2.60;0.80;;;;;;;23.90;31.61;100768.00;105129;1262;66013;-67
2023/06/04 06:36:46;;;;;;;2.10;0.70;;;;;;;23.39;31.53;100759.27;105081;1259;73260;-69
2023/06/04 06:39:14;;;;;;;2.10;0.60;;;;;;;22.87;33.08;100765.54;105172;1259;61305;-67
2023/06/04 06:41:41;;;;;;;3.50;0.90;;;;;;;22.68;33.99;100770.13;105012;1256;61257;-68
2023/06/04 06:44:11;;;;;;;1.40;0.70;;;;;;;22.87;34.00;100765.48;104864;1260;73541;-68
2023/06/04 06:46:38;;;;;;;1.20;0.70;;;;;;;23.13;32.89;100766.36;105189;1259;66914;-67
2023/06/04 06:49:06;;;;;;;3.10;0.60;;;;;;;22.91;33.02;100766.86;105348;1257;72694;-67
2023/06/04 06:51:33;;;;;;;1.40;0.70;;;;;;;22.67;34.01;100770.02;105070;1257;61376;-67
2023/06/04 06:54:00;;;;;;;2.50;0.80;;;;;;;22.71;35.13;100771.64;104990;1256;61169;-66
2023/06/04 06:56:27;;;;;;;2.40;0.80;;;;;;;22.91;34.56;100771.65;105247;1261;74656;-69
2023/06/04 06:58:54;;;;;;;1.30;0.50;;;;;;;23.13;33.75;100772.42;105351;1260;67645;-70
2023/06/04 07:01:21;;;;;;;1.80;0.60;;;;;;;23.43;33.83;100774.83;105211;1260;71393;-68
2023/06/04 07:03:48;;;;;;;1.70;0.50;;;;;;;23.90;33.28;100781.53;105219;1257;61284;-69
2023/06/04 07:06:16;;;;;;;2.80;0.60;;;;;;;24.32;32.14;100784.70;105285;1256;61246;-68
2023/06/04 07:08:42;;;;;;;1.20;0.70;;;;;;;24.58;31.72;100788.91;105177;1256;73411;-69
2023/06/04 07:11:11;;;;;;;1.90;0.60;;;;;;;24.61;30.92;100794.02;105533;1257;67081;-69
2023/06/04 07:13:39;;;;;;;1.20;0.60;;;;;;;24.23;31.21;100787.39;104856;1262;71274;-69
2023/06/04 07:16:06;;;;;;;2.60;0.70;;;;;;;23.73;32.32;100797.44;104949;1258;61477;-71
2023/06/04 07:18:33;;;;;;;2.70;0.80;;;;;;;23.46;33.60;100798.96;104965;1258;61158;-73
2023/06/04 07:21:00;;;;;;;2.80;0.90;;;;;;;23.47;33.69;100795.84;104952;1259;74650;-73
2023/06/04 07:23:27;;;;;;;1.40;0.80;;;;;;;23.64;33.66;100796.17;105080;1262;65911;-69
2023/06/04 07:25:54;;;;;;;3.60;2.80;;;;;;;23.67;32.68;100792.62;104990;1261;72578;-70
2023/06/04 07:28:21;;;;;;;5.80;3.10;;;;;;;23.46;33.50;100796.14;105524;1257;61597;-68
2023/06/04 07:30:48;;;;;;;5.90;4.90;;;;;;;23.21;33.37;100791.16;105752;1257;61289;-71
2023/06/04 07:33:15;;;;;;;1.60;1.10;;;;;;;23.27;33.49;100800.20;105261;1257;74626;-70
2023/06/04 07:35:42;;;;;;;1.70;0.70;;;;;;;23.46;33.48;100798.16;105393;1261;67273;-70
2023/06/04 07:38:09;;;;;;;1.60;1.00;;;;;;;23.74;32.71;100792.77;105193;1262;72632;-70
2023/06/04 07:40:36;;;;;;;2.70;0.90;;;;;;;23.88;32.63;100787.42;105501;1262;61150;-71
2023/06/04 07:43:03;;;;;;;4.50;1.10;;;;;;;24.13;32.77;100784.45;105408;1260;61182;-69
2023/06/04 07:45:30;;;;;;;3.10;1.30;;;;;;;24.13;31.41;100786.48;105494;1260;75423;-69
2023/06/04 07:48:01;;;;;;;1.40;0.60;;;;;;;23.69;31.29;100784.45;105432;1259;67721;-68
2023/06/04 07:50:28;;;;;;;9.50;5.20;;;;;;;23.40;31.86;100786.20;105327;1262;71217;-69
2023/06/04 07:52:55;;;;;;;4.70;2.50;;;;;;;23.40;32.50;100790.30;105478;1262;61157;-67
2023/06/04 07:55:22;;;;;;;4.30;1.70;;;;;;;23.57;32.86;100788.40;105080;1257;61257;-70
2023/06/04 07:57:49;;;;;;;4.60;3.70;;;;;;;23.94;32.89;100788.69;105074;1262;74673;-69
2023/06/04 08:00:17;;;;;;;2.20;1.50;;;;;;;24.21;31.62;100792.38;105012;1259;67626;-66
2023/06/04 08:02:44;;;;;;;4.20;3.70;;;;;;;24.12;31.48;100790.70;105667;1259;72681;-67
2023/06/04 08:05:13;;;;;;;4.00;1.80;;;;;;;24.30;30.95;100785.86;105488;1258;61266;-67
2023/06/04 08:07:40;;;;;;;8.30;7.60;;;;;;;24.39;31.85;100781.13;105477;1262;61242;-68
2023/06/04 08:10:08;;;;;;;5.00;2.60;;;;;;;24.49;32.77;100782.96;105147;1259;75148;-67
2023/06/04 08:12:35;;;;;;;3.40;2.10;;;;;;;24.84;31.37;100780.78;105803;1260;67480;-67
2023/06/04 08:15:03;;;;;;;6.00;4.00;;;;;;;25.06;30.14;100781.07;105339;1259;73019;-68
2023/06/04 08:17:31;;;;;;;2.50;1.40;;;;;;;25.01;29.99;100778.61;105328;1262;61350;-68
2023/06/04 08:19:58;;;;;;;3.30;2.20;;;;;;;24.93;30.05;100767.83;105400;1259;61146;-69
2023/06/04 08:22:29;;;;;;;7.10;5.60;;;;;;;24.78;29.80;100771.77;105704;1258;74822;-67
2023/06/04 08:24:56;;;;;;;8.20;7.50;;;;;;;24.57;30.59;100766.45;104994;1262;65944;-67
2023/06/04 08:27:23;;;;;;;3.20;1.30;;;;;;;24.39;30.19;100760.07;105019;1259;72679;-68
2023/06/04 08:29:51;;;;;;;3.00;1.50;;;;;;;24.25;30.45;100762.61;105397;1259;61165;-69
2023/06/04 08:32:18;;;;;;;4.50;2.50;;;;;;;24.08;30.12;100768.52;105330;1256;61286;-69
2023/06/04 08:34:45;;;;;;;2.80;0.90;;;;;;;23.87;30.45;100776.88;105262;1262;74702;-69
2023/06/04 08:37:12;;;;;;;2.10;0.70;;;;;;;24.16;31.44;100780.48;105070;1258;67185;-68
2023/06/04 08:39:39;;;;;;;3.00;0.90;;;;;;;24.75;30.98;100776.08;105005;1261;72553;-69
2023/06/04 08:42:09;;;;;;;2.50;1.10;;;;;;;25.21;29.89;100781.89;104963;1258;61181;-67
2023/06/04 08:44:38;;;;;;;2.30;1.10;;;;;;;25.21;28.92;100779.61;105337;1258;61283;-68
2023/06/04 08:47:05;;;;;;;3.10;0.90;;;;;;;24.83;28.86;100780.46;104993;1261;74720;-68
2023/06/04 08:49:36;;;;;;;1.40;0.50;;;;;;;24.42;29.85;100785.75;105208;1257;67674;-68
2023/06/04 08:52:03;;;;;;;5.10;0.70;;;;;;;24.02;30.47;100783.19;105044;1257;72278;-69
2023/06/04 08:54:32;;;;;;;1.10;0.40;;;;;;;23.90;31.23;100783.28;105557;1260;61283;-69
2023/06/04 08:56:59;;;;;;;3.50;0.70;;;;;;;24.10;31.22;100779.07;105595;1259;61245;-68
2023/06/04 08:59:27;;;;;;;5.90;0.70;;;;;;;24.28;31.13;100781.59;105237;1259;73763;-69
2023/06/04 09:01:54;;;;;;;2.20;0.50;;;;;;;24.37;31.90;100777.53;105015;1257;67274;-69
2023/06/04 09:04:21;;;;;;;2.40;0.70;;;;;;;24.71;31.01;100778.70;104942;1262;74464;-69
2023/06/04 09:06:48;;;;;;;2.20;0.60;;;;;;;24.99;30.25;100779.68;105562;1259;61246;-69
2023/06/04 09:09:17;;;;;;;3.20;0.60;;;;;;;24.98;30.00;100778.66;105112;1262;61342;-69
2023/06/04 09:11:51;;;;;;;2.50;0.70;;;;;;;24.98;29.62;100772.38;105250;1265;74715;-69
2023/06/04 09:14:19;;;;;;;2.10;0.60;;;;;;;25.13;30.07;100769.66;105292;1259;67667;-68
2023/06/04 09:16:55;;;;;;;2.60;0.50;;;;;;;25.48;30.39;100775.52;105412;1262;72566;-67
2023/06/04 09:19:22;;;;;;;0.80;0.40;;;;;;;25.43;28.99;100776.33;105146;1261;61205;-67
2023/06/04 09:21:56;;;;;;;0.80;0.60;;;;;;;25.15;29.64;100769.10;104960;1262;61249;-67
2023/06/04 09:24:26;;;;;;;2.10;0.60;;;;;;;25.05;28.93;100759.58;104974;1261;74758;-67
2023/06/04 09:26:52;;;;;;;2.80;0.70;;;;;;;24.81;28.72;100754.77;105568;1262;66002;-67
2023/06/04 09:29:20;;;;;;;1.60;0.70;;;;;;;24.82;29.44;100758.23;104981;1260;72345;-67
2023/06/04 09:31:47;;;;;;;2.00;0.50;;;;;;;24.97;29.82;100762.02;105026;1262;61340;-68
2023/06/04 09:34:15;;;;;;;2.20;0.70;;;;;;;25.05;29.49;100758.92;104957;1259;61253;-69
2023/06/04 09:36:42;;;;;;;1.70;0.60;;;;;;;25.22;29.81;100760.87;104883;1262;75133;-67
2023/06/04 09:39:16;;;;;;;4.00;0.60;;;;;;;25.38;29.00;100757.70;105142;1260;67573;-66
2023/06/04 09:41:43;;;;;;;1.30;0.60;;;;;;;25.41;29.10;100761.28;105077;1262;74668;-68
2023/06/04 09:44:13;;;;;;;1.80;0.60;;;;;;;25.48;29.50;100757.41;104890;1259;61261;-67
2023/06/04 09:46:40;;;;;;;2.70;0.60;;;;;;;25.69;29.74;100753.64;105516;1260;61144;-69
2023/06/04 09:49:07;;;;;;;3.00;0.60;;;;;;;25.88;29.20;100751.08;104991;1260;72881;-67
2023/06/04 09:51:54;;;;;;;1.70;0.60;;;;;;;25.92;29.12;100754.28;104653;1259;69608;-66
2023/06/04 09:54:21;;;;;;;3.30;0.50;;;;;;;25.89;29.42;100761.08;105728;1260;71755;-68
2023/06/04 09:56:48;;;;;;;2.60;0.80;;;;;;;25.86;29.76;100758.36;105437;1262;61231;-66
2023/06/04 09:59:15;;;;;;;1.70;0.60;;;;;;;25.93;28.44;100755.88;105908;1262;59962;-67
2023/06/04 10:01:42;;;;;;;2.70;0.60;;;;;;;26.00;27.79;100753.23;105281;1257;74093;-65
2023/06/04 10:04:11;;;;;;;2.90;0.60;;;;;;;26.03;27.93;100751.56;105279;1258;66331;-65
2023/06/04 10:06:38;;;;;;;3.50;0.60;;;;;;;26.04;27.94;100760.27;105066;1260;72667;-68
2023/06/04 10:09:07;;;;;;;1.40;0.50;;;;;;;25.85;27.69;100751.30;104655;1259;61485;-68
2023/06/04 10:11:41;;;;;;;2.50;0.60;;;;;;;25.67;28.90;100753.21;105371;1262;61241;-66
2023/06/04 10:14:31;;;;;;;1.60;0.60;;;;;;;25.67;28.36;100755.81;105045;1262;75100;-66
2023/06/04 10:16:58;;;;;;;3.70;1.10;;;;;;;25.69;27.23;100751.23;104959;1262;67401;-66
2023/06/04 10:19:25;;;;;;;3.10;0.60;;;;;;;25.66;27.93;100754.60;105291;1257;72479;-64
2023/06/04 10:21:52;;;;;;;1.80;0.60;;;;;;;25.31;27.86;100756.31;105312;1262;61216;-65
2023/06/04 10:24:22;;;;;;;2.20;0.60;;;;;;;24.63;28.40;100756.44;105187;1262;61241;-70
2023/06/04 10:26:49;;;;;;;4.90;0.60;;;;;;;24.17;29.40;100757.84;105080;1262;73125;-66
2023/06/04 10:29:16;;;;;;;4.90;1.10;;;;;;;24.12;29.87;100751.90;104994;1257;66284;-65
2023/06/04 10:31:45;;;;;;;1.30;0.60;;;;;;;24.30;30.50;100750.41;105239;1260;72550;-68
2023/06/04 10:34:13;;;;;;;2.40;0.90;;;;;;;24.47;29.29;100749.38;105798;1262;61345;-67
2023/06/04 10:36:44;;;;;;;2.00;0.70;;;;;;;24.65;29.39;100747.91;105084;1262;61209;-67
2023/06/04 10:39:11;;;;;;;;;;;;;;;24.80;28.92;100747.61;104958;1262;73477;-67
2023/06/04 10:41:38;;;;;;;1.90;0.50;;;;;;;25.02;28.98;100747.09;105383;1260;68004;-67
2023/06/04 10:44:05;;;;;;;4.30;0.80;;;;;;;25.22;27.50;100754.67;105172;1260;71456;-67
2023/06/04 10:46:40;;;;;;;1.20;0.70;;;;;;;25.35;27.10;100756.95;104935;1263;61263;-67
2023/06/04 10:49:15;;;;;;;2.10;0.80;;;;;;;25.26;26.54;100751.16;105024;1262;61266;-67
2023/06/04 10:51:43;;;;;;;1.10;0.40;;;;;;;25.09;27.57;100759.19;105040;1260;73144;-67
2023/06/04 10:54:10;;;;;;;3.30;0.60;;;;;;;24.96;27.36;100754.50;105121;1260;67070;-67
2023/06/04 10:56:37;;;;;;;1.60;0.70;;;;;;;24.59;27.66;100758.15;104763;1260;72774;-69
2023/06/04 10:59:14;;;;;;;1.00;0.50;;;;;;;24.27;28.76;100753.02;104967;1259;61886;-69
2023/06/04 11:01:41;;;;;;;3.40;0.70;;;;;;;24.30;29.02;100753.77;104803;1265;61178;-67
2023/06/04 11:04:25;;;;;;;1.80;0.60;;;;;;;24.36;29.55;100758.97;105348;1262;75365;-69
2023/06/04 11:07:04;;;;;;;2.40;1.00;;;;;;;24.59;29.00;100750.99;105155;1260;66635;-69
2023/06/04 11:09:31;;;;;;;1.20;0.70;;;;;;;24.82;27.99;100753.05;105407;1262;72210;-70
2023/06/04 11:12:01;;;;;;;1.80;0.90;;;;;;;24.84;27.73;100758.76;105221;1259;62215;-70
2023/06/04 11:14:28;;;;;;;1.70;0.80;;;;;;;24.69;27.83;100759.17;105336;1259;61273;-65
2023/06/04 11:16:55;;;;;;;2.60;1.20;;;;;;;24.49;28.42;100747.68;105047;1262;74710;-69
2023/06/04 11:19:22;;;;;;;2.20;0.90;;;;;;;24.42;29.08;100754.59;105271;1262;66226;-71
2023/06/04 11:21:50;;;;;;;3.60;0.80;;;;;;;24.50;28.65;100752.79;105066;1259;73210;-69